HOT:  STM32F103  |  STM32F030  |  TL431  |  LM317  |  NCP1117

>0 Cart
Home  »  Manufacturers  »  ON Semiconductor
Manufacturer Name:ON Semiconductor
Main Products:Power and Signal Management, Logic, Discrete and Custom Device
Official Website:http://www.onsemi.com/
ON Product Search

ON Semiconductor (Nasdaq: ON) is driving energy efficient innovations, empowering customers to reduce global energy use. The company offers a comprehensive portfolio of energy efficient power and signal management, logic, discrete and custom solutions to help design engineers solve their unique design challenges in automotive, communications, computing, consumer, industrial, LED lighting, medical, military/aerospace and power supply applications. ON Semiconductor operates a responsive, reliable, world-class supply chain and quality program, and a network of manufacturing facilities, sales offices and design centers in key markets throughout North America, Europe, and the Asia Pacific regions.


Global corporate headquarters are in Phoenix, Arizona. The company operates a network of manufacturing facilities, sales offices, and design centers in key markets throughout North America, Europe, and the Asia Pacific regions.


> Provides a comprehensive portfolio of energy efficient solutions
> Helps customers solve their unique design challenges
> Empowers design engineers to reduce global energy use
> Operates a responsive, reliable world-class supply chain and quality program
> Maintains global environmental sustainability and social responsibility programs

Data Converters

 


Image Part # Description Date
FAN3852UC16X Microphone Pre-Amplifier with Digital Output 2019-11-01
NC7SZ00L6X TinyLogic UHS 2-Input NAND Gate 2019-11-01
NC7SZ32L6X TinyLogic UHS 2-Input OR Gate 2019-11-01
74LVC06ADR2G Low Voltage CMOS Hex Inverter 2019-11-01
MB10S 0.5A Bridge Rectifier 2019-11-01
FDMS86101 N-Ch PowerTrench MOSFET,100V,60A,8mΩ, 2019-11-01
FDP083N15A-F102 N-Ch PowerTrench®MOSFET 150V,117A,8.3mΩ 2019-11-01
NC7WZ07P6X TinyLogic UHS Dual Buffer 2019-11-01
FDA032N08 75V, 235A, 3.2mΩ,N-Channel Power MOSFET 2019-11-01
FCU850N80Z 800V, 6A, 850mΩ, N-Channel Power MOSFET 2019-11-01
FCPF400N80Z 800V, 14A, 400mΩ, N-Channel MOSFET, SUPERFET II 2019-11-01
FCPF250N65S3L1 650V, 12A, 250mΩ, N-Channel Power MOSFET 2019-11-01
FCPF20N60 600V, 190mΩ, 20A, N-Channel Power MOSFET 2019-11-01
FCPF190N65S3R0L 650V, 17A, 190mΩ, N-Channel Power MOSFET, SUPERFET III, Easy Drive 2019-11-01
FCPF190N60E 600V, 20.6A, 190mΩ, N-Channel Power MOSFET, SUPERFET II, Easy Drive 2019-11-01
FCPF165N65S3R0L 650V, 19A, 165mΩ, N-Channel Power MOSFET, SUPERFET III, Easy Drive 2019-11-01
FCP36N60N 600V, 36A, 90mΩ, N-Channel Power MOSFET, SUPREMOS 2019-11-01
FCP22N60N 600V, 22A, 165mΩ, N-Channel Power MOSFET, FAST 2019-11-01
FCMT180N65S3 650V, 17A, 180mΩ, N-Channel Power MOSFET, SUPERFET III, Easy Drive 2019-11-01
FCH47N60NF 600V, 45.8A, 65mΩ, N-Channel Power MOSFET 2019-11-01
FCH47N60F-F133 600V, 47A, 73mΩ,N-Channel Power MOSFET 2019-11-01
FCH190N65F-F155 650V, 20.6A, 190mΩ,N-Channel Power MOSFET 2019-11-01
FCH104N60F 600V, 37A, 104mΩ, N-Channel Power MOSFET, SUPERFET II, FRFET 2019-11-01
FCH077N65F-F155 650V, 54A, 77mΩ, N-Channel Power MOSFET 2019-11-01
FCD850N80Z 800V, 6A, 850mΩ,N-Channel Power MOSFET 2019-11-01
FCD360N65S3R0 650V, 10A, 360mΩ, N-Channel Power MOSFET 2019-11-01
FCB36N60NTM 600V, 36A, 90mΩ, N-Channel Power MOSFET 2019-11-01
FCB11N60TM 600V, 11A, 380mΩ, N-Channel Power MOSFET 2019-11-01
KSA1220AYS PNP Epitaxial Silicon Transistor 2019-10-10
BAS16P2T5G Switching Diode 2019-10-10
LM431BIZX Adjustable/2.5V,1% Tolerance Shunt Regulator 2019-10-10
FDB035N10A N-Ch PwrTrench MOSFET 100V,214A,3.5mΩ 2019-10-10
S1G 1A General Purpose Rectifier 2019-10-10
FDD390N15ALZ 150V,26A,42mΩN-Cha PowerTrench MOSFET 2019-10-10
SZMMBZ5226BLT1G 225mW,3.3V,±5%Zener Diode Regulator 2019-10-10
FDD86250 N-Ch PowerTrench MOSFET 150V,51A,22mΩ 2019-10-10
ESD5581MXT5G ESD Protection,Bidirectional,5V,10pF 2019-10-10
PCA9654EDTR2G I/O Expander,I2C/SMBus,8bit,Interrupt 2019-10-10
SMMBFJ177LT1G P-Channel JFET Transistor 2019-10-10
2SK3557-7-TB-E N-Channel JFET, 15V, 10~32mA, 35mS,CP 2019-10-10
GBPC3508 35A, Bridge Rectifer 2019-10-10
NSVF5488SKT3G RF Transistor for Low Noise Amplifier 2019-10-10
NSS1C300ET4G 3A, 100V, Low VCE(sat) PNP Transistor 2019-10-10
NSV60600MZ4T3G -60V, -6A, Low VCE(sat)Transistor, PNP 2019-10-10
NSV1C201LT1G 100V, 2A, NPN Low VCE(sat) Bipolar Transistor 2019-10-10
CPH5524-TL-E PNP/NPN Complementary Transistor 2019-10-10
NSV60601MZ4T3G 60V, 6A, Low VCE(sat)Transistor, NPN 2019-10-10
BC849BLT1G 30V, 100mA, NPN Bipolar Transistor 2019-10-10
2SA2202-TD-E -100V, -2A, Bipolar Transistor, Low VCE(sat), PNP 2019-10-10
2SA2039-E -50V, -5A, Bipolar Transistor, Low VCE(sat), PNP 2019-10-10
NCP1117DT18T5G 1A LDO Voltage Regulator,Vout:1.8V 2019-09-19
NSVMMUN2233LT3G NPN Bipolar Digital Transistor (BRT) 2019-09-19
NSBA124EDXV6T1G 50V Dual Bipolar Digital Transistor 2019-09-19
MUN5213DW1T3G Dual NPN Bipolar Digital Transistor 2019-09-19
ESD8704MUTAG H-Speed Data Line Protection, Unidirectional 2019-09-19
ESDU3121MXT5G 12V Unidirectional ESD Protection Device 2019-09-19
SZESD7016MUTAG ESD Protection Diode, Low Capacitance 2019-09-19
SRV05-4MR6T1G ESD Protection Diodes 2019-09-19
ESD7410N2T5G Ultra-Low Capacitance ESD Protection 2019-09-19
ESD7002WTT1G Low Capacitance ESD Protection Diode 2019-09-19
ESD5581N2T5G 5V, 10pF, ESD Protection,Bidirectional 2019-09-19
SZSM05T1G 5V, ESD Protection, Dual Common Anode Diodes 2019-09-19
NSVBAS20LT3G 200V Switching Diode 2019-09-19
NSVBAS19LT1G Switching Diode, High Voltage 120V 2019-09-19
SBAS21DW5T1G 250V High Voltage Switching Diode 2019-09-19
NRVS3KB 3A, 800V Surface Mount Rectifiers 2019-09-19
NRVS3MB 3A, 1000V Surface Mount Rectifiers 2019-09-19
S1MFL Surface General-Purpose Rectifier 2019-09-19
NRVHP620MFDT1G 6A, 200V Ultra-Fast Dual-Mode Rectifier 2019-09-19
FFAF30UA60S 30A, 600V, Ultra-Fast II Single Diode 2019-09-19
SURA8260T3G 600V, 2A, Ultra-Fast Power Rectifier 2019-09-19
SZMMSZ5255BT1G 500mW Zener Diode 2019-09-19
SZMMSZ5240BT1G 500mW Zener Diode 2019-09-19
SZMMSZ5233BT1G 500mW Zener Diode 2019-09-19
SZMMSZ4705T1G 18V Low Current Zener Diode Regulator 2019-09-19
NRVUS360VBT3G 600V,3A, Ultrafast Rectifier 2019-09-03
NRVUD340T4G 400V, 3A, Ultrafast Switchmode Powerer Rectifier 2019-09-03
NHP220SFT3G 2A, 200V, Ultrafast Rectifier 2019-09-03
RHRP860 8A, 600V, Hyperfast Diode 2019-09-03
MURA205T3G 50V, 2A, Ultra-Fast Recovery Power Rectifier 2019-09-03
ISL9R3060G2 30A, 600V, STEALTH Diode 2019-09-03
FFA60UP30DNTU 60A, 300V, Ultrafast Dual Diode 2019-09-03
FFA60UA60DN 60A, 600V, Ultrafast II Dual Diode 2019-09-03
FDN537N 30V, 6.5A, 23mΩ,N-Channel Power MOSFET 2019-09-03
FAN7888MX 3-Phase Half-Bridge Gate-Drive IC 2019-09-03
FDMA6023PZT 60mΩ, -20V, -3.6A, Dual P-Channel Power MOSFET 2019-09-03
MICROFC-60035-SMT-TR Silicon Photomultiplier Sensors 2019-09-03
BC560CTA PNP Epitaxial Silicon Transistor 2019-09-03
BC550CTA NPN Epitaxial Silicon Transistor 2019-09-03
FIN1002M5X LVDS High Speed Differential Receiver 2019-09-03
SZMMSZ4704T1G 17V Low Current Zener Diode Regulator 2019-09-03
SZMMSZ4694T1G 8.2V, Zener Diode Regulator 2019-09-03
SZMMSZ27T1G 500mW, 27V, ±5%, Zener Diode Regulator 2019-09-03
SZMMBZ15VAWT1G 40W, 15V, Zener Protection Diode 2019-09-03
SZMM5Z5V6ST1G 500mW, 5.6V, ±2%, Zener Diode Regulator 2019-09-03
SZMM5Z5V1ST1G 500mW, 5.1V, ±2%, Zener Voltage Regulator 2019-09-03
SZMM3Z4V7T1G 300mW, 4.7V, ±5%, Zener Diode Regulator 2019-09-03
SZMM3Z22VT1G 300mW, 22V, ±5%, Zener Diode Voltage Regulator 2019-09-03
SZBZX84C13ET1G 225W, 13V, Zener Diode 2019-09-03
SZBZX84B5V6LT1G 225mW, 5.6V, ±2%, Zener Diode Regulator 2019-09-03
SZBZX84B18LT1G 250mW, ±2%, Zener Diode Voltage Regulator 2019-09-03
SZ1SMB5922BT3G 7.5V, 3.0W Zener Diode Regulator 2019-09-03
SZ1SMB5918BT3G 5.1V, 3.0W Zener Diode Regulator 2019-09-03
SZ1SMA5930BT3G 16V, 1.5W Zener Diode Regulator 2019-09-03
SZ1SMA5923BT3G 8.2V, 1.5W Zener Diode Regulator 2019-09-03
MM3Z75VB 75V, 200mW, 2%, Zener Diode 2019-09-03
1SMF5920BT1G 6.2V, Zener Voltage Regulators 2019-09-03
NRVBAF260T3G 60V, 2A Low VF Schottky Rectifier 2019-09-03
NRVBB4030T4G 30V,40A Schottky Rectifier 2019-09-03
SBR80520LT1G 20V,0.5A,SM,Schottky Power Rectifier 2019-09-03
SBRD81045T4G 45V,10A,Switchmode Schottky Power Rectifier 2019-09-03
SBRA8160T3G 60V,1A Schottky Rectifier 2019-09-03
SBAS40-04LT1G dual,40V Schottky Diode 2019-09-03
RB751S40T5G Schottky Barrier Diode,30V 2019-09-03
NTSB40100CTT4G Schottky Power Rectifier, Dual,40A,100V 2019-09-03
NTSAF345T3G Trench Schottky Rectifier 2019-09-03
NSVR351SDSA3T1G Schottky Barrier Diode-Mixer & Detector 2019-09-03
NSVR201MXT5G Schottky Barrier Diode-Mixer & Detector 2019-09-03
NRVTSAF360T3G Trench Schottky Rectifier,Low Forward 2019-09-03
NRVTSA3100ET3G Low Leakage Tre-based Schottky Rectifier 2019-09-03
NRVBAF440T3G 4.0A, 40V Schottky Rectifier 2019-08-16
NRVBA1H100T3G 100V, 1A, SM, Schottky Power Rectifier 2019-08-16
NRVB8H100MFST1G 8A, 100V, Schottky Diode 2019-08-16
FYPF2010DNTU Schottky Barrier Rectifier 2019-08-16
FFSPF0665A -650V, 6A, SiC Schottky Diode 2019-08-16
FFSP2065A -650V, 20A, SiC Schottky Diode 2019-08-16
FFSH50120A 1200V, 50A, SiC Diode 2019-08-16
FFSH4065ADN-F155 650V, 40A, Silicon Carbide Schottky Diode 2019-08-16
FFSH4065A 650V, 40A, Silicon Carbide Schottky Diode 2019-08-16
FFSH40120A 1200V, 40A, SiC Schottky Diode 2019-08-16
FFSH3065B-F085 650V,30A, Automotive SiC Schottky Diode 2019-08-16
FFSH3065ADN-F155 650V, 30A ,Silicon Carbide Schottky Diode 2019-08-16
FFSH3065A 30A, -650V, SiC Diode 2019-08-16
FFSH30120ADN-F155 1200V, 30A, SiC Schottky Diode 2019-08-16
FFSH30120A 1200V, 30A, SiC Diode 2019-08-16
FFSH2065BDN-F085 650V, Automotive SiC Schottky Diode 2019-08-16
FFSH2065A 20A, -650V, SiC Diode 2019-08-16
FFSH20120A-F085 1200V, 20A, SiC Schottky Diode 2019-08-16
FFSH1665ADN-F155 650V, 16A, SiC Schottky Diode 2019-08-16
FFSH1665A -650V, 16A, SiC Schottky Diode 2019-08-16
FFSH15120A 1200V, 15A, SiC Schottky Diode 2019-08-16
FFSH10120A-F085 1200V, 10A, SiC Schottky Diode 2019-08-16
FFSH10120A 1200V, 10A, SiC Schottky Diode 2019-08-16
FFSD0865A -650V, 8A, SiC Schottky Diode 2019-08-16
FFSD0665A -650V, 6A, SiC Schottky Diode 2019-08-16
FFSB3065B-F085 650V, 30A, Automotive SiC Schottky Diode 2019-08-16
FFSB1265A -650V, 12A, SiC Schottky Diode 2019-08-16
FFSB1065A -650V, 10A, SiC Schottky Diode 2019-08-16
FFSB0865A -650V, 8A, SiC Schottky Diode 2019-08-16
FFSB0665A 650V, 6A, SiC Schottky Diode 2019-08-16
HGTG20N60B3 600V, 20A, PT IGBT 2019-08-16
SGH40N60UFDTU 600V, 20A, PT IGBT 2019-08-16
HGTG30N60B3D 600V, 30A, PT IGBT 2019-08-16
FGPF15N60UNDF 600V, 15A, IGBT, Short Circuit Rated 2019-08-16
FGL60N100BNTDTU 1000V, 60A, NPT Trench IGBT 2019-08-16
FGL40N120ANTU 1200V, 40A, IGBT, NPT 2019-08-16
FGH75T65UPD 650V, 75A, Field Stop Trench IGBT 2019-08-16
FGH75T65SQDNL4 650V, 75A, IGBT, Field Stop IV/4 Lead 2019-08-16
FGH60T65SQD-F155 650V, 60A, Field Stop Trench IGBT 2019-08-16
FGH60N60SFDTU 600V, 60A, IGBT, Field Stop 2019-08-16
FGH40T65SQD-F155 650V, 40A, IGBT, Field Stop Trench 2019-08-16
FGH40T100SMD 1000V, 40A, IGBT, Field Stop Trench 2019-08-16
FGH40N60SFDTU 600V, 40A, N-Channel Field Stop IGBT 2019-08-16
FGA50T65SHD 650V, 50A, IGBT, Field Stop Trench 2019-08-16
FGA25N120ANTDTU 1200V, 25A, IGBT, NPT Trench 2019-08-16
FGA15N120ANTDTU-F109 1200V, 15A, IGBT, NPT Trench 2019-08-16
AFGHL40T65SPD 650V, 40A, IGBT 2019-08-16
AR0144ATSM20XUEA0-DPBR 1.0MP Global Shutter CMOS Image Sensor 2019-07-22
MCH6663-TL-W Complementary Dual Power MOSFET 2019-07-22
FQP46N15 150V, 42mΩ, 45.6A, N-Channel QFET MOSFET 2019-07-22
NVHL072N65S3 650V, 72mΩ, 44A, Single N-Channel Power MOSFET 2019-07-22
NTP4813NLG 30V, 13.1mΩ, 51A, N-Channel MOSFET 2019-07-22
FQPF10N60C 600V, 730mΩ, 9.5A, N-Channel Power MOSFET 2019-07-22
FQP5N60C 600V, 2500mΩ, 4.5A, N-Channel Power MOSFET 2019-07-22
FCH104N60F-F085 600V, 104mΩ, 37A, N-Channel FRFET MOSFET 2019-07-22
FCH47N60N 600V, 62mΩ, 47A, N-Channel Power MOSFET 2019-07-22
FCP20N60 600V, 190mΩ, 20A, N-Channel Power MOSFET 2019-07-22
NVMFD5C680NLT1G 60V, 26A, 28mΩ, Dual N-Channel Power MOSFET 2019-07-22
TL331SN4T3G Comparator, Low Power, Wide Supply Range 2019-07-22
FAN5353MPX 3Mhz, 3A Synchronous Buck Regulator 2019-07-22
FQD3P50TM-AM002BLT 4.9Ω,-500V,-2.1A P-Cha PowQFET MOSFET 2019-07-22
NLV74HC14ADR2G Hex Inverter with Schmitt Trigger Input 2019-07-22
FAN7631SJX Advanced PFM Controller 2019-07-22
FGH20N60UFDTU 600V,20A,IGBT,Field Stop 2019-07-22
FQPF9P25 P-Ch QFET MOSFET -250V,-6A,620mΩ 2019-07-22
NCV84160DR2G Protected MOSFET High-Side Driver 2019-07-22
FDS89161LZ 2N-Ch Shielded Gate PowerTrench MOSFET 2019-07-22
FDT86246L 150V, 2A, 228mΩ, N-Channel Power MOSFET 2019-07-22
FDB9409-F085 40V, 80A, 3.5mΩ, Automotive N-Channel Power MOSFET 2019-07-22
FDMC86184 100V, 57A, 8.5mΩ, N-Channel Shielded Gate PowerTrench MOSFET 2019-07-22
FCP165N65S3 650V, 19A, 165mΩ, N-Channel Power MOSFET, SUPERFET III, Easy Drive 2019-07-22
NTPF110N65S3HF 650V, 30A, 110mΩ, N-Channel Power MOSFET 2019-07-22
NVTR4503NT1G 30V, 2.5A, 110mΩ, N-Channel Small Signal MOSFET 2019-07-22
NVMFS5C680NLWFT1G 60V, 21A, 27.5mΩ, N-Channel Power MOSFET 2019-07-22
NVMFS5C677NLT1G 60V, 36A, 15mΩ, N-Channel Power MOSFET 2019-07-22
NVMFS5C628NLWFAFT1G 60V, 150A, 2.4mΩ, N-Channel Power MOSFET 2019-07-22
NVMFS5C466NT1G 40V, 49A, 8.1mΩ, N-Channel Power MOSFET 2019-07-22
NVMFS5C460NLWFAFT1G 40V, 78A, 4.5mΩ, Single N-Channel Power MOSFET 2019-07-22
NVMFS5C450NLAFT1G 40V, 110A, 2.8mΩ, N-Channel Power MOSFET 2019-07-22
NVMFD5C478NLT1G 40V, 29A, 14.5mΩ, Dual N-Channel Power MOSFET 2019-07-22
NVMFD5C470NT1G 40V, 36A, 11.4mΩ, Dual N-Channel Power MOSFET 2019-07-22
NVMFD5C446NLT1G 40V, 145A, 2.65mΩ, Dual N-Channel Power MOSFET 2019-07-22
NVD6820NLT4G 90V, 50A, 17mΩ, Single N-Channel Power MOSFET 2019-07-22
NVD5C688NLT4G 60V, 17A, 27.4mΩ, Single N-Channel Power MOSFET 2019-07-22
NVBLS0D7N04M8TXG 40V, 240A, 0.75mΩ, N-Channel Power MOSFET 2019-07-22
NTMFS6D1N08HT1G 80V, 89A, 5.5mΩ, N-Channel Power MOSFET 2019-07-22
NTMFS5C645NLT1G 60V, 100A, 4.0mΩ, Single N-Channel Power MOSFET 2019-07-22
NTMFS5C628NLT3G 60V, 150A, 2.4mΩ, N-Channel Power MOSFET 2019-07-22
NTMFS5C456NLT1G 40V, 87A, 3.7mΩ, Single N-Channel Power MOSFET 2019-07-22
NTMFS4C024NT1G 30V, 78A, 2.8mΩ, N-Channel Power MOSFET 2019-07-22
NTMFS4931NT1G 30V, 246A, 1.1mΩ, N-Channel Power MOSFET 2019-07-22
NTHL110N65S3F 650V, 30A, 110mΩ, N-Channel, Power MOSFET, SUPERFET III, FRFET 2019-07-22
NTHL082N65S3F 650V, 40A, 82mΩ, N-Channel SUPERFET III FRFET Power MOSFET 2019-07-22
NTHL040N65S3F 650V, 65A, 40mΩ, N-Channel, SUPERFET III, FRFET, Power MOSFET 2019-07-22
FQPF8N80C 800V, 8A, 1.55Ω, N-Channel MOSFET 2019-07-22
FQPF8N60C 600V, 7.5A, 1.2Ω, N-Channel QFET Power MOSFET 2019-07-22
FQPF6N80C 800V, 5.5A, 2.5Ω, N-Channel QFET MOSFET 2019-07-22
FQP16N25 250V, 16A, 230mΩ, N-Channel QFET MOSFET 2019-07-22
FQP11N40C 400V, 10.5A, 530mΩ, N-Channel Power MOSFET, QFET 2019-07-22
FQD9N25TM 250V, 7.4A, 420mΩ, N-Channel Power MOSFET, QFET 2019-07-22
FQD20N06TM 60V, 16.8A, 63mΩ, N-Channel Power MOSFET, QFET 2019-07-22
FQB19N20LTM 200V, 21A, 140mΩ, N-Channel Power MOSFET, Logic Level, QFET 2019-07-22
FQA9N90C-F109 900V, 9A, 1.4Ω, N-Channel QFET Power MOSFET 2019-07-22
FQA40N25 250V, 40A, 70mΩ, N-Channel Power MOSFET, QFET 2019-07-22
FQA38N30 300V, 38.4A, 85mΩ, N-Channel QFET MOSFET 2019-07-22
FQA24N50 500V, 24A, 200mΩ, N-Channel QFET Power MOSFET 2019-07-22
FQA13N80-F109 800V, 12.6A, 750mΩ, N-Channel Power MOSFET, QFET 2019-07-22
FQA11N90-F109 900V, 11.4A, 960mΩ, N-Channel Power QFET MOSFET 2019-07-22
FDV303N 25V, 0.68A, 0.45Ω, N-Channel Digital FET 2019-07-22
FDS8817NZ 30V, 15A, 7mΩ, N-Channel PowerTrench MOSFET 2019-07-22
FDS86252 150V, 4.5A, 55mΩ, N-Channel PowerTrench MOSFET 2019-07-22
FDS6898AZ-F085 20V, 9.4A, 10mΩ, 2N-Channel Logic Level PWM Optimi-PwrTrench 2019-07-22
FDS3992 100V, 4.5A, 62mΩ, 2N-Channel PowerTrench MOSFET 2019-07-22
FDPF190N15A 150V, 27.4A, 19mΩ, N-Channel PowerTrench MOSFET 2019-07-22
FDPF085N10A 100V, 40A, 8.5mΩ, N-Channel PowerTrench MOSFET 2019-07-22
FDPF045N10A 100V, 67A, 4.5mΩ, N-Channel PowerTrench MOSFET 2019-07-22
FDP8D5N10C 100V, 76A, 8.5mΩ, N-Channel PowerTrench MOSFET, Shielded Gate 2019-07-22
FDP8860 30V, 80A, 2.5mΩ, N-Channel PowerTrench MOSFET 2019-06-28
FDP4D5N10C 100V, 128A, 4.5mΩ, N-Channel PowerTrench MOSFET, Shielded Gate 2019-06-28
FDMS003N08C 80V, 147A, 3.1mΩ, N-Channel Shielded Gate PowerTrench MOSFET 2019-06-28
FDMQ86530L 60V, 8A, 17.5mΩ, N-Channel PowerTrench MOSFET 2019-06-28
FDD9409-F085 40V, 90A, 3.2mΩ, N-Channel PowerTrench MOSFET 2019-06-28
FDD86581-F085 60V, 25A, 15mΩ, N-Channel PowerTrench MOSFET 2019-06-28
FDD5612 60V, 18A, 55mΩ, N-Channel PowerTrench MOSFET 2019-06-28
FDD4N60NZ 600V, 3.4A, 2.5Ω, N-Channel Power MOSFET 2019-06-28
FDBL86561-F085 60V, 300A, 1.1mΩ, N-Channel PowerTrench MOSFET 2019-06-28
FDBL86066-F085 100V, 240A, 4.1mΩ, N-Channel PowerTrench MOSFET 2019-06-28
FDB1D7N10CL7 100V, 268A, 1.7mΩ, N-Channel Power MOSFET, Standard Gate 2019-06-28
FDA50N50 500V, 48A, 105mΩ, N-Channel Power MOSFET, UniFETTM 2019-06-28
FDA18N50 500V, 19A, 265mΩ, N-Channel UniFETTM Power MOSFET 2019-06-28
FCU4300N80Z 800V, 1.6A, 4.3Ω, N-Channel Power MOSFET, SUPERFET II 2019-06-28
FCPF600N65S3R0L 650V, 6A, 600mΩ, N-Channel Power MOSFET 2019-06-28
FCPF360N65S3R0L 650V, 10A, 360mΩ, N-Channel Power MOSFET, SUPERFET III, Easy Drive 2019-06-28
FCPF250N65S3R0L 650V, 12A, 250mΩ, N-Channel Power MOSFET, SUPERFET III, Easy Drive 2019-06-28
FCPF190N60 600V, 20.2A, 199mΩ, N-Channel Power MOSFET, SUPERFET II, FAST 2019-06-28
FCPF125N65S3 650V,24A,125mΩ,N-Channel Power MOSFET,SUPERFET III,Easy Drive 2019-06-28
FCP600N65S3R0 650V,6A,600mΩ,N-Channel Power MOSFET,SUPERFET III,Easy Drive 2019-06-28
FDMS86101DC 100V, 60A, 7.5mΩ, N-Channel Power Trench MOSFET 2019-06-28
FCP360N65S3R0 650V, 10A, 360mΩ, N-Channel Power MOSFET 2019-06-14
FCP260N65S3 650V, 12A, 260mΩ, N-Channel Power MOSFET, SUPERFET III, Easy Drive 2019-06-14
FCP067N65S3 650V, 44A, 67mΩ, N-Channel Power MOSFET, SUPT III, Easy Drive 2019-06-14
FCH125N65S3R0-F155 650V, 24A, 125mΩ, N-Channel Power MOSFET 2019-06-14
FCH072N60F-F085 600V, 52A, 62mΩ, N-Channel SuperFET II FRFET MOSFET 2019-06-14
FCH072N60F 600V, 52A, 72mΩ, N-Channel Power MOSFET, SUPERFET II, FRFET 2019-06-14
FCH041N60E 600V, 77A, 41mΩ, N-Channel Power MOSFET 2019-06-14
FCH040N65S3-F155 650V, 65A, 40mΩ, N-Channel Power MOSFET, SUPERFET III, Easy Drive 2019-06-14
FCD600N65S3R0 650V, 6A, 600mΩ, N-Channel Power MOSFET, SUPERFET III, Easy Drive 2019-06-14
FCB260N65S3 650V, 12A, 260mΩ, N-Channel SUPERFET III Power MOSFET 2019-06-14
FCB20N60F-F085 600V, 20A, 190mΩ, N-Channel MOSFET 2019-06-14
BVSS138LT1G 50V, 0.2A, 3.5Ω, N-Channel Logic Level Small Signal MOSFET 2019-06-14
ATP405-TL-H 100V, 40A, 33mΩ, N-Channel Power MOSFET 2019-06-14
2V7002WT1G 60V, 340mA, 1.6Ω, N-Channel Small Signal MOSFET 2019-06-14
NVATS5A112PLZT4G -60V, -27A, 43mΩ, P-Channel Power MOSFET 2019-06-14
FQU11P06TU -60V, -9.4A, 185mΩ, P-Channel Power QFET MOSFET 2019-06-14
BBS3002-DL-1E -60V, -100A, 5.8mΩ, P-Channel Power MOSFET 2019-06-14
NTMS4177PR2G 19mΩ, -30V, -11.4A, P-Channel MOSFET 2019-06-14
NTLUS3A39PZTAG 39mΩ, -20V, -5.2A, P-Channel Power MOSFET 2019-06-14
NVMFS5113PLT1G 14mΩ, −60V, -64A, P-Channel Power MOSFET 2019-06-14
NVGS5120PT1G 111mΩ, -60V, -2.9A, P-Channel Power MOSFET 2019-06-14
NVATS5A304PLZT4G 6.5mΩ, -60V, -120A, P-Channel Power MOSFET 2019-06-14
NVATS5A106PLZT4G 25mΩ, -40V, -33A, P-Channel Power MOSFET 2019-06-14
NTR3A052PZT1G 47mΩ, -20V, -3.6A, P−Channel Power MOSFET 2019-06-14
FDD9510L-F085 13.5mΩ, -40V, -50A, P-Channel PwrTrench MOSFET 2019-06-14
FDD4243 44mΩ, -40V, -14A, P-Channel PowerTrench MOSFET 2019-06-14
FFSP15120A Silicon Carbide (SiC) Schottky Diodes 2019-06-14
CAT34TS02VP2GT4C Temperature Sensor with EEPROM Memory 2019-06-14
AR0144ATSM20XUEA0-DPBR 1.0MP Global Shutter CMOS Image Sensor 2019-06-14
FFSH15120ADN-F155 SiC Schottky Diode,1200V,15A 2019-06-14
NCV809SN293D2T1G 2.93V Very Low Supply Current Voltage Supervisor 2019-05-31
M74HCT4051ADTR2G Analog Multiplexers / Demultiplexers with LSTTL Compatible Inputs 2019-05-31
FGH50T65SQD-F155 650V,50A,Field Stop Trench IGBT 2019-05-16
FSBH0170ANY 700V Integrated Power Switch 2019-05-16
NCP1076BBP065G Enhanced Off line Switcher 2019-05-16
NCP1076BAP130G Enhanced Off line Switcher 2019-05-16
NCP1076ABP100G Enhanced Off line Switcher 2019-05-16
KA5M0365RYDTU 650V Integrated Power Switch for 35Watt offline flyback converters 2019-05-16
KA5H0380RTU 800V Integrated Power Switch 2019-05-16
NCP12400CBAAB0DR2G Fixed Frequency Current Mode Controller 2019-05-16
LC709203FXE-05MH Smart LiB Gauge Battery Fuel Gauge LSI 2019-05-16
LC05132C01NMTTTG Battery Protection Controller 2019-05-16
FFSH10120ADN-F155 SiC Schottky Diode,1200V,10A 2019-05-16
FDS6670AS N-Ch PowerTrench SyncFET,30V,13.5A,9mΩ 2019-05-16
RHRP15120 1200V,15A,Hyperfast Diode 2019-05-16
NVD5C684NLT4G 60V,16.5mΩ,38A,Single N-Ch Power MOSFET 2019-05-16
KSP42TA 300V,NPN Epitaxial Silicon Transistor 2019-05-16
NRVTS8120EMFST1G Trench Schottky Rectifier,Very Low Leakage,120V,8A 2019-05-16
SBCW66GLT1G 45V,800mA,NPN General Purpose Transistor 2019-05-16
SZMMSZ5260BT1G 500mW,43V,±5% Zener Diode Regulator 2019-05-16
FAN7383MX 625V,0.65/0.35A Sink/Source Current,Half Bridge Gate-Drive with variable Deadtime,Shutdown protection 2019-05-16
NCV431ASNT1G Low Voltage Adjustable Shunt Regulator 2019-03-28
NCV891334MW50R2G Step-Down Regulator,2 Mode,2MHz Low-IQ 2019-03-28
NCV6324BMTAATBG Synchronous Buck Converter,3MHz,2.0A 2019-03-28
NCP3235MNTXG 4.5~21V,DC/DC Converter(Integr-MOSFET) 2019-03-28
FAN53526UC128X Digitally Program TinyBuck Regulator 2019-03-28
FAN53200UC35X Digital-Programmable TinyBuck Regulator 2019-03-28
FAN49101AUC340X Buck-Boost Regulator,TinyPower I2C 2019-03-28
NCV8718AMTADJTBG LDO Regulator,Low Iq,Wide Input Voltage 2019-03-28
NCV8715SQ33T2G 3.3V Ultra-Low Iq,LDO Regulator 2019-03-28
NCV8705MWADJTCG Ultra-Low Iq/Noise,LDO Voltage Regulator 2019-03-28
NCV8664CDT33RKG Very Low Iq Low Dropout Linear Regulator 2019-03-28
NCV8605MN18T2G 1.8V LDO Regulator,ESD Protection 2019-03-28
NCV8177AMTW330TCG Linear Voltage Regulator 2019-03-28
NCV8177AMTW180TCG Linear Voltage Regulator 2019-03-28
NCV8177AMTW120TCG Linear Voltage Regulator LDO 2019-03-28
NCV8163ASN330T1G LDO Regulator,Ultr-Low Noise & High PSRR 2019-03-28
NCV8161BSN180T1G LDO Regulator,Ultr-Low Noise & High PSRR 2019-03-28
NCV8161BMX180TBG 1.8V,Ultra-Low Noise/High PSRR LDO Reg 2019-03-28
NCV59748MWADJTBG 1.5A,Ultra-Low Dropout Voltage Regulator 2019-03-28
NCV47721PAAJR2G LDO regulator with 200mA output current 2019-03-28
NCV4269CPD50R2G LDO,5V,with Delay 2019-03-28
NCV4269CD150R2G Linear Voltage Regulator,LDO 2019-03-28
NCV4263-2CD250R2G LDO Regulator 2019-03-28
NCP718ASN180T1G LDO Regulator,Low Iq 2019-03-28
NCP717CMX285TBG 300mA,2.85V,LDO Voltage Regulator 2019-03-28
NCP702SN28T1G 200mA LDO Voltage Regulator,2.8V 2019-03-28
NCP59800BMNADJTAG 1A Low Noise, RF LDO Voltage Regulator 2019-03-28
NCP186AMX295TAG Linear Voltage Regulator,LDO 2019-03-28
NCP186AMX120TAG Linear Voltage Regulator,LDO 2019-03-28
NCP160AFCTC330T2G LDO Reg,Ultra-Low Noise/High PSRR,250mA 2019-03-28
NCP134AMX110TCG LDO Regulator-Bias Rail & Low Dropout 2019-03-28
NCP114ASN300T1G 3.0V Fixed Out,300mA,CMOS LDO Regulator 2019-03-28
NCV317LBDG 100mA Linear Voltage Regulator,Adj 2019-03-28
NCP186BMX330TAG Linear Voltage Regulator 2019-03-28
NCV214RSQT2G Voltage Output,Current Sense Amplifiers 2019-03-28
NCV210RSQT2G Voltage Output,Current Sense Amplifiers 2019-03-28
NCS210RSQT2G Voltage Output,Current Sense Amplifiers 2019-03-28
NCV2250SN2T1G Comparator,High Speed,Low Voltage 2019-03-28
NCS2252SQ2T2G Comparator,High Speed,Rail-to-Rail 2019-03-28
NCS2250SN2T1G Comparator,High Speed,Low Voltage 2019-03-28
NCV20072DMR2G 3Mhz CMOS Op-Amp,Wide supply range 2019-03-28
NCS333ASN2T1G Low Power,Zero-Drift-Operat Amplifier 2019-03-28
NCV2333DMR2G Op Amp,Low Power,Zero-Drift,30µV Offset 2019-03-28
LM2902VDG Op-Amp,Single Supply,Quad 2019-03-28
NCV7428MWL5R2G System Basis Chip 2019-03-28
NCV7329D10R2G LIN Transceiver,Stand-alone 2019-03-28
FUSB307BMPX USB Type-C Port Controller with USB-PD 2019-03-28
LC823450XDTBG High-Resolution Audio Processing SoC 2019-03-28
NL17SG04P5T5G Single Inverter 2019-03-28
SZESD9B5.0ST5G Bidirectional,ESD Protection Diodes 2019-03-14
FFH60UP60S3 600V,60A,Ultrafast Diode 2019-03-14
NCP81080DR2G High Performance Dual MOSFET Gate Driver 2019-03-14
FSBF15CH60BT 600V,15A,Intelligent Power Module 2019-03-14
FSL4110LRN 1000V Integrated Power Switch with Line OVP and No Bias Winding for 9Watt Offline Flyback Converters 2019-03-14
NCP2817BFCCT2G Audio Amplifier,NOCAP,LongPlay,Headphone 2019-02-26
HCPL0638R2 Logic 2-Ch High Performance Optocoupler 2019-02-26
FGH75T65SQD-F155 IGBT Field Stop Trench 650V,75A 2019-02-26
FGL40N120ANDTU IGBT,1200V,NPT 2019-02-26
NCP13992AADR2G Current Mode Resonant Controller 2019-02-26
NCV8406BDTRKG Self-Protected Low Side Driver 2019-02-26
FOD3184V MOSFET/IGBT Gate Driver Optocoupler 2019-02-26
KAI-4021-ABA-CD-BA CCD Image Sensor,4.2MP,Monochrome 2019-02-26
NVMFD5C470NLT1G 40V,36A,11.5mΩ,Dual N−Ch Power MOSFET 2019-02-26
SC432BVSNT1G Vol-Refe, Low Cat-Curr,Program,Shunt-Reg 2019-02-26
NVMFS5113PLWFT1G −60V,14mΩ,-64A,P-Channel Power MOSFET 2019-02-26
FDMA530PZ Single P-Channel PowerTrench® MOSFET 2019-02-26
NJVMJD31CT4G 3A,100V,NPN Bipolar Power Transistor 2019-02-26
FQPF6N90C 900V,6A,2.3Ω,N-Channel MOSFET 2019-02-26
FAN7191MX-F085 High & Low Side Auto Gate Driver IC 2019-02-26
MOC3063SR2VM Triac Driver Output Optocoupler 2019-01-23
SZMM3Z5V6ST1G 5.6V ±2% Tight Tolerance Zener Diode Voltage Regulator 2019-01-23
FAN7711MX ballast control integrated circuit 2018-12-27
2N7000 60V,200mA,N-Ch Enhancement Mode MOSFET 2018-12-14
FGH60N60SMD 600V,60A,Field Stop IGBT 2018-12-14
NB3N2304NZMNR4G Clock/Data Fanout Buffer,1:4,3.3V 2018-12-14
CAT5140ZI-00-GT3 DCP,256-Tap,I2C,100kΩ 2018-11-22
NCV213RSQT2G Voltage Output,Current Sense Amplifiers 2018-11-22
NCS213RSQT2G Voltage Output,Current Sense Amplifiers 2018-11-22
FNA41560B2 Motion SPM® 45 Series, Longer Pins 2018-11-22
2SA2169-TL-E PNP Bipolar Transistor,-50V,-10A 2018-11-22
KA5L0380RYDTU 800V Integrated Power Switch 2018-11-22
NB3N3020DTR2G 3.3V,Program,Clock Multiplier 2018-11-01
NCV78763DQ6AR2G Dual LED Driver and Power Ballast 2018-11-01
FFSH20120ADN-F085 1200V,20A,Silicon Carbide Schottky Diode 2018-11-01
FDB28N30TM N-CH UniFETTM Pwr-MOSFET,300V,28A,129mΩ 2018-11-01
SZMM3Z12VST1G 12V,±2%,Zener Diode Regulator 2018-11-01
NSV1C200LT1G 100V,2A,Low VCE(sat),PNP Transistor 2018-11-01
NCP1340B5D1R2G High-Voltage,Quasi-Resonant Controller 2018-11-01
SCV431ASN1T1G Low-Vol Precision Adjust-Shunt Regulator 2018-11-01
NCV431BSNT1G Low-Vol Precision Adjust-Shunt Regulator 2018-11-01
NTMFD5C674NLT1G Dual N-CH Power MOSFET,60V,42A,14.4mΩ 2018-11-01
MBRB40250TG Schottky Power Rectifier,40A,250V 2018-11-01
SZMM3Z9V1T1G 225mW,9.1V,±5%Zener Diode Regulator 2018-10-19
NSV40201LT1G Low VCE(sat)Transistor,NPN,40V,2A 2018-10-19
2SC6017-TL-E NPN Bipolar Transistor,50V,10A 2018-10-19
1SV263-TL-E PIN Diode,50V,50mA,rs=2.5Ω(typ) 2018-10-19
NSVP249SDSF3T1G RF Diode,Dual Series PIN-VHF,UHF & AGC 2018-10-19
NCV361SNT1G Overvoltage Protection Controller 2018-10-19
AR0135CS2M00SUEA0-DPBR1 "AR0135CS2M00SUEA0-DPBR1",Image Sensor 2018-10-19
NSS1C301ET4G 3A,100V Low VCE(sat) NPN Transistor 2018-10-19
NRVHPD660T4G Ultrafast Rectifier,6A,600V 2018-10-19
NLU2G04AMUTCG Dual Inverter 2018-10-19
NCP1077BBP100G Enhanced Off line Switcher 2018-10-19
NCP1076BBP100G Enhanced Off line Switcher 2018-10-19
NCP1075BBP100G Enhanced Off line Switcher 2018-10-19
NCL30060B3DR2G High PF Offline Single Stage LED Driver 2018-10-19
2SB1203T-TL-E PNP Bipolar Transistor,-50V,-5A 2018-10-19
FFSP0665A 650V,6A,Silicon Carbide Schottky Diode 2018-10-19
GBU8K 8A Bridge Rectifier 2018-10-19
NRVUD620CTT4G 200V,6A,Ultrafast Switchmode Power Recti 2018-09-21
NRVTSAF345T3G 45V,3A,Schottky Power Rectifier 2018-09-21
NCP81231MNTXG Buck Controller,USB Power & Type-C Apply 2018-09-21
FXLA108BQX Dual Supply 8-Bit Voltage Translator 2018-09-21
MT9P031I12STM-DR1 CMOS Image Sensor,5 MP,1/3" 2018-09-21
PCS3PS550AG-08CR Peak EMI Reduction IC,General Purpose 2018-09-21
NCP1632DR2G Power Factor Controller,Interleaved,2-Ph 2018-09-21
MCH6001-TL-E RF Transistor,8V,150mA,fT=16GHz NPN Dual 2018-09-21
FSUSB74UMX High-Speed USB 2.0 Switch/Multiplexer 2018-09-21
SZMMBZ5240ELT1G 225W,10V Zener Diode Regulator 2018-09-21
SZESD7241N2T5G Ultra-Low Capacitance ESD Protection 2018-09-21
NCV7344MW3R2G High Speed Low Power CAN Transceiver 2018-09-21
NCP718ASN330T1G 300mA,Low Iq,Wide Input Voltage,LDO Reg 2018-09-21
NCP163AFCT330T2G LDO Reg,Ultra-Low Noise/High PSRR,250mA 2018-09-21
NCP1340B6DR2G High-Voltage,Quasi-Resonant Controller 2018-09-21
NVA4001NT1G 20V,3Ω,238mA,Small Signal N-Ch MOSFET 2018-09-21
EFC2J013NUZTDG 12V,17A,5.8mΩ,Dual N-Chan Power MOSFET 2018-09-21
2SD1803T-TL-E 50V,5A,Low VCE(sat) Bipolar Transistor 2018-09-21
NSV9435T1G PNP Bipolar Digital Transistor 2018-08-30
FFB20UP20DN-F085 Ultra-fast dual channel rectifier 2018-08-30
NCV47821PAAJR2G Adjustable Dual LDO Regulator 2018-08-30
NVGS3443T1G Power MOSFET,-20V,-2.2A 65mΩ P-Ch 2018-08-23
NRVB120ESFT1G 20V,1A,SM,Schottky Power Rectifier 2018-08-23
NB2309AI1HDR2G Zero Delay Buffer,3.3V,Nine Output 2018-08-23
MC74AC86DR2G Quad 2-Input Exclusive OR Gate 2018-08-23
NCP163AFCT180T2G LDO Reg,Ultra-Low Noise/High PSRR,250mA 2018-08-23
NRVTS12100EMFST1G Trench Schottky Rectifier,100V,12A 2018-08-23
NCP163AFCT300T2G LDO Reg,Ultra-Low Noise/High PSRR,250mA 2018-08-23
NOIP1FN1300A-QTI 1.3MP,Global Shutter,CMOS Image Sensor 2018-08-23
NCP1129AP65G High Vol Switch Reg for Offline SMPS 2018-08-23
NCP140AMXC330TCG 150mA,LDO Voltage Reg,Cap Free,Low Noise 2018-08-23
FQD13N06TM 60V,140mΩ,10A,N-Channel QFET MOSFET 2018-08-23
NVMFS5C628NLAFT1G 60V,150A,2.4mΩ,N-Channel Power MOSFET 2018-08-23
NTMFS5C442NT1G 40V,140A,2.3mΩ,N-Channel Power MOSFET 2018-08-23
SZMM3Z6V8T1G 225mW,6.8V,±5%Zener Diode Regulator 2018-08-23
SZMM3Z33VT1G 200mW,33V Zener Diode Regulator 2018-08-23
NCS333ASQ3T2G 5.5V,11mA,Single Operational Amplifier 2018-08-23
FFSP1265A 650V,12A,Silicon Carbide Schottky Diode 2018-08-23
NTMFS5C682NLT1G Single N−Ch Power MOSFET 60V,26A,21mΩ 2018-08-23
NCP1288BD65R2G 65kHz,Current Mode,Controller 2018-08-23
NCV70628MW001R2G 800mA,LIN Micro-Stepping Motor Driver 2018-08-23
SZMMSZ5238BT1G Zener Diode 500mW 2018-08-23
SZMMSZ5229BT1G Zener Diode 500mW 2018-08-23
NCP135BMT040TBG 0.5A,0.4V,LDO 2018-08-23
NCP135AMT040TBG 0.5A,0.4V,LDO 2018-08-23
NL17SG02DFT2G Single 2-Input NOR Gate 2018-08-23
NOIP3SE5000A-QTI CMOS Image Sensor,Global Shutter,5.3 MP 2018-08-23
NVGS4111PT1G Single P−Ch Power MOSFET -30V,-4.7A 2018-08-23
NSVMUN5314DW1T3G Complementary Bipolar Digital Transistor 2018-08-23
FCPF850N80Z N-Ch SuperFET II MOSFET 2018-08-23
NVTFS5C658NLWFTAG Single N-Ch Power MOSFET 60V,109A,5.0mΩ 2018-08-23
NVTFS5C658NLTAG Single N-Ch Power MOSFET 60V,109A,5.0mΩ 2018-08-23
SZBZX84C6V2LT1G 225mW,6.2V,±5%Zener Diode Regulator 2018-08-23
SZMMBZ5232BLT1G 225mW,5.6V,±5%,Zener Diode Regulator 2018-08-23
FOD8343 4.0A Output Current,High Speed Gate Drive Optocoupler 2018-08-23
FOD8342T 3.0A Output Current,High Speed Gate Drive Optocoupler 2018-08-23
FOD8314T 1.0A Output Current,Gate Drive Optocoupler 2018-08-23
FOD3120S High Noise Immunity,2.5A Output Current,Gate Drive Optocoupler 2018-08-23
SZ1SMA5929BT3G 15V,1.5W Zener Diode Voltage Regulator 2018-08-23
SZ1SMA5925BT3G 10V,1.5W Zener Diode Voltage Regulator 2018-08-23
NCV33072DR2G Operational Amplifier,Single Supply 3.0 V to 44 V,Dual 2018-08-23
NCP1392DDR2G MOSFET Driver,High Voltage, Half Bridge,with Inbuilt Oscillator 2018-08-23
NOIL2SM1300A-GDC High Speed CMOS Image Sensor 2018-07-31
CAT5241WI-25-T1 Digital Potentiometer (POT),64-Tap,Quad,with I2C Interface 2018-07-31
AR0135AT2M00XUEA0-DPBR 1.2Mp CMOS Digital Image Sensor with Global Shutter 2018-07-31
NCP4586DMU50TCG 150mA LDO Voltage Regulator,5.0V 2018-07-31
SZMMSZ5256ET1G 225W,30V Zener Diode Regulator 2018-07-31
NSV40200LT1G Low VCE(sat)Transistor,PNP,-40V,-4A 2018-07-12
SZBZX84C10ET1G Zener Diode,10V,225W 2018-07-12
NRVBD640CTT4G Schottky Barrier Rectifier,40V,6.0A 2018-06-13
MBRD340G Schottky Barrier Rectifier,40V,3A 2018-06-13
CAT24C08HU4I-GT3 8-Kb I2C Serial EEPROM Memory 2018-06-13
2SC6097-TL-E Bipolar Transistor,60V,3A,Low VCE(sat),NPN 2018-06-13
NCP1399AHDR2G Current Mode Resonant Controller (Integrated High Voltage Drivers, High Performance) 2018-06-13
NCV8408BDTRKG Self-Protected Low Side Driver with Temperature and Current Limit 2018-06-13
NCP1247DD065R2G PWM Controller,Fixed Frequency,Flyback Converters 2018-06-13
NCP1239BD100R2G Fixed Frequency Current Mode Controller for Flyback Converter with HV startup 2018-06-13
NCP110AFCT180T2G LDO Regulator,Low VIN,Low Noise and High PSRR,200mA 2018-06-13
NCP110AFCT120T2G LDO Regulator,Low VIN,Low Noise and High PSRR,200mA 2018-06-13
NB3V1104CDTR2G Low Skew Fanout Buffer,1:4,LVCMOS,3.3V/2.5V/1.8V 2018-06-13
LV8414CS-N-TE-L-H Quad H-Bridge Micro Step Motor Driver with I2C Interface 2018-06-13
FAN53703UC48X 1.0A Synchronous Buck Regulator 2018-06-13
CAV25320YE-GT3 EEPROM Serial 32-Kb SPI - Automotive Grade 2018-06-13
FDP2710 N-Ch PowerTrench MOSFET 250V,50A,42.5mΩ 2018-06-13
NVD6824NLT4G-VF01 Single N-Ch Power MOSFET 100V,41A,20mΩ 2018-06-13
NTLUS3A18PZTCG -20V,18mΩ,-8.2A,P-Ch Power MOSFET 2018-06-13
CPH6904-TL-E N-Channel JFET,25V,20 to 40mA,40mS 2018-06-13
RD0306T-TL-H Planar Ultrafast Rectifier,Fast Trr Type,3A,600V,50ns 2018-06-13
NCS20092DMR2G Operational Amplifier,5.5V Rail-to-Rail Input and Output,350kHz,Dual 2018-06-13
2SA1593T-TL-E Bipolar Trans,-100V,-2A,Low VCE(sat),PNP 2018-06-13
SMMBT2369ALT1G 15V,200mA,NPN Bipolar Transistor 2018-06-13
NVMFS5C466NLT1G Single N-Ch Power MOSFET 40V,52A,7.3mΩ 2018-06-13
NVMFS5C430NLAFT1G Single N-Ch Power MOSFET 40V,200A,1.4mΩ 2018-06-13
NTP082N65S3F N-Ch SuperFET III FRFET MOSFET 650V,40A,82mΩ 2018-06-13
NVMFD5C466NLT1G Dual N-Ch Power MOSFET 40V,52A,7.4mΩ 2018-06-13
FCP190N65S3R0 N-Ch SuperFET III MOSFET 650V,17A,190mΩ 2018-06-13
NCP114ASN120T1G CMOS Low Dropout Regulator (LDO),300mA 2018-06-13
NCP114AMX270TCG CMOS Low Dropout Regulator (LDO),300mA 2018-06-13
NCV809STRG Voltage Supervisor,3-Pin,Microprocessor,Very Low Supply Current,Reset Monitors 2018-06-13
NVTFS5826NLWFTAG 60V,20A,24mΩ,Single N-Ch Power MOSFET 2018-05-25
NCP4586DMU12TCG 150mA,Low Noise,Low Dropout Regulator 2018-05-25
SZMMSZ36T1G 500mW,36V,±5% Zener Diode Regulator 2018-05-10
SZMMSZ30T1G 500mW,30V,±5% Zener Diode Regulator 2018-05-10
SZMMSZ22T1G 500mW,22V,±5% Zener Diode Regulator 2018-05-10
SURA8240T3G 400V,2A,Ultra-Fast Power Recti 2018-05-10
SMMSD701T1G 70V,200mA,UHF Schottky Diode 2018-05-10
MCH6545-TL-E Bipolar Transistor,(-)50V,(-)1A,Low VCE(sat) Complementary Dual 2018-05-10
NRVBS3201T3G 200V,3A,SM,Schottky Power Rectifier 2018-05-10
NCV7718CDPR2G Hex Half-Bridge Driver 2018-05-10
NCP81276MNTXG Multi-Phase Synchronous Buck Controller 2018-05-10
LE25U20AQGTXG Serial Flash Memory,2Mb (256K x 8) 2018-05-10
FES6D 200V,6A,Ultrafast Rectifier 2018-05-10
AX8052F143-3-TB05 RF Microcontroller,Ultra-low Power 2018-05-10
SZ1SMB5931BT3G 18V,3.0W Zener Diode Voltage Regulator 2018-05-10
UD1006FR-H Planar Ultrafast Rectifier,Low VF type,10A,600V 2018-05-10
NVMFD5C462NLT1G 40V,4.7mΩ,84A,Single N-Ch Power MOSFET 2018-05-10
NOIL2SM1300A-GWC CMOS Image Sensor,High Speed 2018-05-10
NCV2003SN2T1G Operational Amplifier,High Slew Rate,Low Voltage,Rail-to-Rail Output 2018-05-10
SZMM3Z13VT1G 300mW,13V,±5% Zener Diode Voltage Reg 2018-05-10
PCP1405-TD-H 250V,6.5Ω,0.6A,Single N-Ch Power MOSFET 2018-05-10
NCV8160AMX250TBG LDO Regulator,Ultra-Low Noise and High PSRR,250mA (Automotive) 2018-05-10
NCP308MT090TBG Voltage Supervisor,Ultra Low Quiescent Current,Programmable Delay Time 2018-05-10
NCP163AFCS280T2G LDO Regulator,Ultra-Low Noise and High PSRR,250mA 2018-05-10
CPH3459-TL-W 200V,3.7Ω,0.5A,Single N-Ch Power MOSFET 2018-05-10
NSVF3007SG3T1G RF Transistor for Low Noise Amplifier 2018-05-10
NCV2820MUTBG Audio Power Amplifier,Class D,2.19W,Filterless,Mono 2018-05-10
NCV20082DR2G Operational Amplifier,5.5V Supply Voltage,Rail-to-Rail Input and Output,1.2MHz 2018-05-10
NCP3901FCCT1G Dual Input,Single Output Power Source Multiplexer 2018-05-10
NVMFS5C645NLAFT1G 60V,4mΩ,100A,Single N-Ch Power MOSFET 2018-05-10
NOIP1FN0300A-QDI CMOS Image Sensor,Global Shutter,0.3MP(VGA) 2018-05-10
NLV74VHC08DTRG Quad 2-Input AND Gate 2018-05-10
NCP717CMX330TBG Linear Voltage Regulator,LDO,Very Low Noise,300mA 2018-05-10
NLV14538BDR2G Dual Monostable Multivibrator 2018-05-10
NLV14175BDR2G Quad D-Type Flip-Flop 2018-05-04
NVMFS5C682NLAFT1G 60V,21mΩ,26A,Single N-Ch Power MOSFET 2018-05-04
NGTB25N120FL2WAG 1200V,25A,Field Stop II IGBT 2018-05-04
NCV4333DR2G 30uV Offset,0.07uV/C,Low Power,Zero-Drift,Operational Amplifier 2018-05-04
MC78L05ABDG Linear Voltage Regulator, Positive,5.0V,100mA 2018-05-04
NE592D8G Low Voltage 2018-05-04
NB100LVEP221MNRG Clock/Data Fanout Buffer,2:1:20 Differential,HSTL/ECL/PECL,2.5V/3.3V 2018-05-04
CAT5259YI-00-T2 DCP,Quad 256-Tap,I2C,100kΩ 2018-05-04
NSS40300MZ4T1G Bipolar Power Transistors 40 V, 3.0 A, Low VCE(sat) PNP Transistor 2018-04-28
NUP2115LT1G ESD protection for FlexRay transceiver 2018-04-28
NCV303LSN40T1G Voltage Detector Series with Programmable Delay and Open Drain N-Channel Output 2018-04-28
NCV303LSN36T1G Voltage Detector with Programmable Delay 2018-04-28
NVMFD5C462NLWFT1G 40V,4.7mΩ,84A,Dual N-Ch Power MOSFET 2018-04-28
NCP1937B2DR2G Combination Power Factor Correction & Quasi-Resonant Flyback Controller 2018-04-28
SZ1SMB5929BT3G 15V,3.0W Zener Diode Voltage Regulator 2018-04-28
NCV7425DW5R2G LIN Transceiver with 150 mA LDO Linear Voltage Regulator 2018-04-28
NLV14043BDR2G Quad R-S Latches 2018-04-28
NCV2200SN1T1G Low Voltage Complementary Comparator 2018-04-28
SZMMSZ5249BT1G Zener Diode 500mW 2018-04-28
NCP431BCSNT1G Voltage Reference,Low Cathode Current,Programmable, Shunt Regulator 2018-04-28
NTR3A30PZT1G -20V,38mΩ,-3.5A,Single Small Signal P-Ch MOSFET 2018-04-28
LV0111CF-TLM-H Ambient Light Sensor,Logarithmic Current Output,with Standby Function 2018-04-28
NSP8814MUTAG Low Capacitance Surge Protection for High Speed Data 2018-04-28
NTMFS4C028NT1G 30V,4.73mΩ,52A,Single N-Ch Power MOSFET 2018-04-28
NSV1C200MZ4T1G 100V,2A,PNP Low VCE(sat) Transistor 2018-04-28
NSPM1041BMUTBG 4.8V,125A,ESD Protection Diode 2018-04-28
NSP8818MUTAG Low Capacitance Surge Protection for High Speed Data 2018-04-28
NCP1124BP100G High Vol Switch Regulator for Offline SMPS 2018-04-28
NVR4501NT1G 20V,3.2A,80mOhm,Single N-Ch Power MOSFET 2018-04-28
NSR05F30NXT5G 30V,0.5ASchottky Diode 2018-04-28
NCV78M05ABDTRKG 5V,500mA Positive Voltage Regulators 2018-04-28
LV8711T-TLM-H PWM Constant-Current Control Stepping Motor Driver 2018-04-28
CAT24C128YI-GT3 128-Kb I2C CMOS Serial EEPROM 2018-04-28
NCV551SN18T1G 150mA CMOS Low Iq Low Dropout Voltage Regulator 2018-04-28
LMV331SQ3T2G Single, Dual, Quad General Purpose,Low Voltage Comparators 2018-04-28
NCP348AEMTTBG Positive Overvoltage Protection Controller with Internal Low RON NMOS FET and Status FLAG 2018-04-28
NSS40200UW6T1G 40V, 4.0A, Low Vce(sat) PNP Transistor 2018-04-28
NCP303LSN38T1G Voltage Detector Series with Programmable Delay 2018-04-28
BDW47G Darlington Complementary Silicon PNP Power Transistor 2018-04-28
SZ1SMB5935BT3G Zener Diode 2018-04-28
MC78M08CDTRKG 500 mA Positive Voltage Regulators 2018-04-28
MC74HC1G00DTT1G Single 2-Input NAND Gate 2018-04-28
NCV303LSN45T1G Voltage Detector Series with Programmable Delay - Auto Rated 2018-03-29
NCP5501DT33G Linear Voltage Regulator,LDO,500mA,3.3V,with Enable 2018-03-29
MMUN2231LT1G NPN Bipolar Digital Transistor 2018-03-29
BAV23CLT1G Dual High Voltage Common Cathode Switching Diode 2018-03-29
NLV17SZ17DFT2G Single Non-Inverting Buffer with Schmitt Trigger Output 2018-03-29
NCP1255AD65R2G PWM Controller, Current Mode,for Offline Power Supplies Featuring Peak Power Excursion 2018-03-29
NVMFS6B05NLT1G 100V,4.8mΩ,145A,N-Channel Power MOSFET 2018-03-29
NCV8161BSN280T1G 450mA,Ultra-Low Noise and High PSRR LDO Regulator for RF and Analog Circuits 2018-03-29
NCV8161BSN300T1G 450mA,Ultra-Low Noise and High PSRR LDO Regulator for RF and Analog Circuits 2018-03-29
SNRVUD620CTT4G 200V,6A,Switch-mode,Ultra-Fast Recovery,Power Rectifier 2018-03-29
NTMFS5C450NT1G 40V,3.3mΩ,102A,N-Channel Power MOSFET 2018-03-29
NLV17SZ14DFT2G Single Inverter with Schmitt Trigger Input 2018-03-29
NCP1602ACCSNT1G Power Factor Controller, Enhanced Light Load Efficiency 2018-03-29
NCP1063AD100R2G High-Voltage Switcher for Low Power Offline SMPS 2018-03-29
NCV4274CST50T3G 400mA Low Dropout Voltage Regulator 2018-03-29
NCV8161ASN330T1G 450mA,Ultra-Low Noise/High PSRR LDO Regulator 2018-03-29
NCV8161ASN280T1G 450mA,Ultra-Low Noise/High PSRR LDO Regulator 2018-03-29
NCV8161ASN300T1G 450mA,Ultra-Low Noise/High PSRR LDO Regulator 2018-03-29
NCV8154MW330180TBG Dual 300mA,Low IQ, Low Dropout,Dual Input Voltage Regulator 2018-03-29
NCH-RSL10-101WC51-ABG Radio SoC,Ultra-Low-Power Multi-protocol Bluetooth® 5 Certified;51 Bump WLCSP 2018-03-29
NLSV4T3144MUTAG 4-bit Configurable Dual-Supply Bus Buffer Level Translator 2018-03-29
LV8907UWR2G Sensor-less Three-phase Brushless DC Motor Controller,with Gate Drivers,for Automotive 2018-03-29
MC34152PG High Speed Dual MOSFET Drivers 2018-03-21
MC7812ACTG 1.0 A Positive Voltage Regulators 2018-03-21
NCP431AILPRAG Voltage Reference,Low Cathode Current,Programmable, Shunt Regulator 2018-03-21
MC100EP52DG ECL Differential Clock/Data D Flip-Flop 2018-03-21
LV8814J-AH Motor Driver,3-Phase,PWM,Full-Wave,BLDC 2018-03-21
NLVSX4014MUTAG 4-Bit 100Mbps Configurable Dual-Supply Level Translator 2018-03-21
NLAS3257CMX2TCG Low-Capacitance SPDT Multiplexer Switch 2018-03-21
NJVMJD41CT4G 100V,6A,NPN Bipolar Power Transistor 2018-03-21
NCV57302DSADJR4G 3A,Fast Transient Response,VLDO,Voltage Regulator 2018-03-21
NCV20032DR2G Operational Amplifier,High Slew Rate,Low Voltage,Rail-to-Rail Output 2018-03-21
NCS2333DMR2G Precision Operational Amplifier,30µV Offset,0.07µV/C,Low Power,Zero-Drift 2018-03-21
MBR460MFST1G Schottky Power Rectifier, Switch-mode,4.0A,60V 2018-03-21
ESD7571N2T5G ESD Protection Diode 2018-03-21
MJD2955G Complementary Power Transistors 2018-03-21
MC100LVEP34DG 2.5V / 3.3VECL ÷2,÷4,÷8 Clock Generation Chip 2018-03-21
MC33077DG Low Noise Dual Operational Amplifier 2018-03-21
NBXSBA010LN1TAG 3.3 V, 100MHz LVPECL Clock Oscillator 2018-03-21
MC10EP445FAG 3.3V/5V ECL 8-Bit Serial/Parallel Converter 2018-03-21
NCV7805BD2TG 1.0 A Positive Voltage Regulators 2018-03-21
1N5406G Axial-Lead Standard Recovery Rectifier 2018-03-21
NCV3066MNTXG Up to 1.5A Constant Current Switching Regulator for LEDs with ON/OFF Function 2018-03-21
MC14015BDR2G Dual 4-Bit Static Shift Register 2018-03-21
MBR1080G Schottky Barrier Power Rectifier 2018-03-21
NJVMJD44E3T4G 80V,10A,NPN Darlington Power Transistor 2018-03-21
NLX2G66DMUTCG Dual Bilateral Analog Switch/Digital Multiplexer 2018-03-21
NCP59151MN33TYG Linear Voltage Regulator Series,VLDO,Fast Transient Response,1.5 A 2018-03-21
NL3S22AHMUTAG USB 2.0 + Audio Switch 2018-03-21
NCS20071SN2T1G Wide Supply Range,3Mhz CMOS Op-Amp 2018-03-21
NCP1370BDR2G Dimmable Quasi-Resonant Primary Side Current-Mode Controller for LED TV Backlight 2018-03-21
NSPM0101MUT5G ESD Protection Diode 2018-03-21
NCV20071SN2T1G Operational Amplifier,Wide supply range,3Mhz CMOS Op-Amp 2018-03-21
NTTFS5820NLTAG Power MOSFET 60 V, 37 A, 11.5 mΩ 2018-03-21
SA571DR2G Compandor 2018-03-21
NCP3064DR2G 1.5 A, Step-Up/Down/Inverting Switching Regulator with ENABLE 2018-03-21
NB3N5573DTG 3.3V, Crystal-To-HCSL Clock Generator 2018-03-21
NCP431AVLPG Voltage Reference, Low Cathode Current,Programmable, Shunt Regulator 2018-03-21
NCP1239BD65R2G Fixed Frequency Current Mode Controller for Flyback Converter with HV startup 2018-03-21
MC78L12ABPRPG 3-Terminal 0.1A Positive Voltage Regulator 2018-03-21
NCP3063BMNTXG 1.5 A, Step-Up/Down/Inverting Switching Regulators 2018-03-21
NCP1075BAP100G Enhanced Off line Switcher for Robust and Highly Efficient Power Supplies 2018-03-21
1SMB5940BT3G 3 Watt Plastic Surface Mount Silicon Zener Diode 2018-03-21
NCP3335ADM330R2G Ultra High Accuracy, Low Iq, 500mA Low Dropout Regulator 2018-03-21
NCP511SN18T1G 150 mA CMOS Low Iq Low-Dropout Voltage Regulator 2018-03-21
SURS8360T3G 3A,600V,Ultra-Fast Recovery Power Rectifier 2018-03-21
MBRD640CTG 40V,6A,Schottky Barrier Rectifier 2018-03-21
2N3055G Complementary Silicon Power Transistor 2018-03-21
NSVBAS21HT1G 250V,200mA,High Voltage Switching Diode 2018-03-21
NCP1294EDBR2G Flyback, Boost, Forward PWM Controller 2018-03-21
MC14024BDR2G 7 Stage Ripple Counter 2018-03-21
NCP330MUTBG Controlled Load Switch,Soft-Start,3.0A 2018-03-08
NCV70627DQ001R2G LIN Microstepping Motor Driver 800mA 2018-03-08
SZMMSZ6V8T1G 500mW,6.8V,±5%,Zener Diode Regulator 2018-02-08
NCP114ASN280T1G 2.8V Fixed Out,300mA,CMOS LDO Regulator 2018-02-08
2SD1802S-TL-E Single NPN Bipolar Transistor 50V,5A 2018-02-08
NCP300LSN20T1G Voltage Detector 2018-02-08
MC14053BDTR2G Triple 2-Channel Analog Multiplexer/Demultiplexer 2018-02-08
MC14049UBDR2G Hex Buffers 2018-02-08
MC74HC4060ADR2G 14-Stage Binary Ripple Counter With Oscillator 2018-02-08
NJT4031NT3G Bipolar Power Transistors 2018-02-08
MC79M15BDTG 500 mA Negative Voltage Regulators 2018-02-08
80SQ045NG Axial Lead Rectifier 2018-02-08
NCP5623DTBR2G Triple Output I2C Controlled RGB LED Driver 2018-02-08
NCV551SN31T1G 150mA CMOS Low Iq Low Dropout Voltage Regulator 2018-02-08
CPH3355-TL-W -30V,156mΩ,-2.5A,P-Ch Power MOSFET 2018-02-01
MC74HC597ADR2G 8-Bit Serial or Parallel-Input/Serial-Output Shift Register with Input Latch 2018-02-01
NL27WZ14DFT2G Dual Schmitt-Trigger Inverter 2018-02-01
1SMB5954BT3G 3 Watt Plastic Surface Mount Silicon Zener Diode 2018-02-01
MJB44H11T4G Complementary Power Transistors 2018-02-01
MC14569BDWR2G Programmable Divide-By-N Dual 4-Bit Binary/BCD Down Counter 2018-02-01
SBAS16XV2T1G 100V,200mA,Switching Diode 2018-01-18
SMUN5211DW1T1G Dual NPN Bipolar Digital Transistor(R1=R2=10KΩ) 2017-12-15
SBAT54SLT1G 30V,200mA,Dual Series Schottky Barrier Diodes 2017-12-15
NCV7441D20R2G CAN Transceiver,Dual,High Speed,Low Power 2017-12-15
SMUN5211T1G 50V,100mA,NPN Bipolar Digital Transistor(BRT)(R1=R2=10KΩ) 2017-12-15
CAT5241WI-50-T1 Quad Digital Potentiometer (POT) with 64 Taps and I2C Interface 2017-12-15
NCV2211DR2G Low Distortion Audio Power Amplifier with Differential Output and Shutdown Mode 2017-12-15
NLV17SZ08DFT2G Single 2-Input AND Gate 2017-12-15
NCP43080ADR2G Synchronous Rectifier Controller 2017-12-15
NTTFS4C02NTAG 30V,2.25mΩ,170A,N-Channel Power MOSFET 2017-12-15
NOIP1FN1300A-QDI 1.3MP(SXGA),Global Shutter,CMOS Image Sensor 2017-12-15
NRVB440MFST1G 40V,4A,Schottky Power Rectifier 2017-12-15
NVMFS5C410NAFT1G 40V,0.92mΩ,300A,Single N-Channel Power MOSFET 2017-12-15
NVLUS4C12NTAG 30V,9mΩ,10.7A,Single N-Ch Power MOSFET 2017-12-15
NB3V1102CMTTBG 3.3V/2.5V/1.8V,Low Skew Fanout Buffer 2017-12-15
SPZT751T1G -60V,-2A,High Current PNP Bipolar Trans 2017-12-15
NCP716BSN330T1G 150mA,Ultra-Low Iq,Wide Input Voltage,LDO Linear Voltage Regulator 2017-12-15
NCV8406ASTT3G Self-Protected Low Side Driver,65V,7A 2017-12-15
NCP702SN30T1G 200mA LDO Voltage Regulator,3V 2017-12-15
NCV8406ADTRKG Self-Protected Low Side Driver 2017-12-15
MMBT2907AM3T5G PNP General Purpose Transistor 2017-12-15
MUN5213DW1T1G Dual Bias Resistor Transistors 2017-12-15
AMIS49587C5871RG Power Line Carrier Modem 2017-12-15
MBRF40250TG 250 V, 40 A SWITCHMODE Schottky Power Rectifier 2017-12-15
NCP1013ST65T3G Self-Supplied Monolithic Switcher for Low Standby-Power Offline SMPS 2017-12-15
MC14021BDR2G 8-Bit Static Shift Register 2017-12-15
NCP1015ST65T3G Self-Supplied Monolithic Switcher for Low Standby-Power Offline SMPS 2017-12-15
NCP5501DT33RKG 500 mA Linear Regulator 2017-12-15
MC7815BDTG 1.0 A Positive Voltage Regulators 2017-12-15
NCV78M05BDTRKG 500 mA Positive Voltage Regulators 2017-12-15
NVTFS5826NLTAG Power MOSFET,60V,20A,24mΩ,Single N-CH 2017-12-01
NLSX3013BFCT1G 8-Bit 100 Mb/s Configurable Dual-Supply Level Translator 2017-12-01
NCV5183DR2G 2017-12-01
NCP603SN500T1G High Performance CMOS LDO Regulator 2017-12-01
NCP1937B1DR2G Combination Power Factor Correction & Quasi-Resonant Flyback Controller 2017-12-01
NCN5130MNTWG Full Featured KNX Transceiver 2017-12-01
NB7VQ572MMNR4G Differential 4:1 Mux w/Input Equalizer to 1:2 CML Clock/Data Fanout / Translator 2017-12-01
NB100LVEP91MNG 2.5V/3.3V Any Level Positive Input to -2.5V/-3.3V/-5V NECL Output Translator 2017-12-01
MURS105T3G Surface Mount Ultrafast Power Rectifiers 2017-12-01
MC78L15ABDG 100 mA Positive Voltage Regulators 2017-12-01
MC10E137FNG 5VECL 8-Bit Ripple Counter 2017-12-01
LV8761V-TLM-E Forward/Reverse H-bridge Driver 2017-12-01
CM1224-02SR 2- and 4-Channel Low Capacitance ESD Protection Arrays 2017-12-01
CAV24C32WE-GT3 32-Kb I2C CMOS Serial EEPROM 2017-12-01
BDW46G Darlington Complementary Silicon PNP Power Transistor 2017-12-01
CPH3216-TL-E 50V,1A,Low VCE(sat),NPN Bipolar Transistor 2017-11-23
2SA2016-TD-E -50V,-7A,Low VCE(sat),PNP Bipolar Transistor 2017-11-23
NSPM0061MUT5G ESD and Surge Protection Device 2017-11-23
NSPM0051MUT5G ESD and Surge Protection Device 2017-11-23
NSP4201MR6T1G Low Clamping Voltage Surge Protection Diode Array 2017-11-23
NCV20081SQ3T2G 1.2MHz,42A Low Power Op Amp 2017-11-23
NVTFS5C466NLTAG 40V,7.2mΩ,50A,Single N-Ch Power MOSFET 2017-11-23
NCN5150MNTWG 38400baud,two-wire M-BUS Slave Transceive 2017-11-23
CAT25512HU5I-GT3 512K SPI Serial CMOS EEPROM 2017-11-23
2N6491G Complementary Silicon Plastic Power Transistor 2017-11-23
MC10EP016FAG 3.3V/5V ECL 8 Bit Synchronous Binary Up Counter 2017-11-23
NSS1C200MZ4T1G 100 V, 2.0 A, Low VCE(sat) PNP Transistor 2017-11-23
BAS21M3T5G High Voltage Switching Diode 2017-11-23
NCP43080DMTTWG Synchronous Rectifier Controller 2017-11-09
NCP705MTADJTCG Adjust Output,500mA,Ultra Low Noise,Ultra Low Iq,LDO Voltage Regulator 2017-11-09
NBXDBA009LNHTAG 75 MHz/150MHz,3.3V,Crystal Oscillator Module 2017-11-09
NCS20061SN2T1G Single 3MHz,5.5V RR I/O OP Amps 2017-11-09
SVD2955T4G -60V,180mΩ,-12A,Single P-Ch Power MOSFET 2017-11-09
NCV8720BMTW110TBG 1.1V Fixed Out,350mA,LDO Regulator with Bias Rail & Very Low Dropout 2017-11-09
NIS5232MN1TXG 12V Electronic Fuse 2017-11-09
NCP45525IMNTWG-H 6A,Load Switch With Fault Protection 2017-11-09
NCV20091SQ3T2G Single 350kHz,20uA,Low Power OP Amps 2017-11-09
NCP114ASN150T1G 1.5V Fixed Out,0.3A,CMOS Low Dropout Regulater 2017-11-09
NCV8720BMTW180TBG 1.8V Fixed Out,350mA,LDO Regulator with Bias Rail & Very Low Dropout 2017-11-09
NCV8720BMTW120TBG 1.2V Fixed Out,350mA,LDO Regulator with Bias Rail & Very Low Dropout 2017-11-09
NCP1076BAP100G Enhanced Off line Switcher for Robust and Highly Efficient Power Supplies 2017-11-09
NVD5C434NT4G 40V,2.2mΩ,163A,Single N-Ch Power MOSFET 2017-11-09
NVD6828NLT4G 90V,20mΩ,41A,Single N-Ch Power MOSFET 2017-11-09
NGTB40N65IHRTG 650V,40A,IGBT Monolithic with Reverse Conducting Diode 2017-11-09
SBRB20200CTT4G 200V,20A,Schottky Barrier Rectifier 2017-11-02
SBAS16LT1G 100V,200mA,Switching Diode 2017-11-02
MC74HC4094ADTR2G 8-Bit Shift and Store Register 2017-11-02
NCP1255BD65R2G Current-Mode PWM Controller for Off-line Power,65kHz 2017-11-02
NCP1090DBRG Integrated IEEE 802.3af PoE-PD Interface Controller 2017-11-02
LV58063MC-AH 3A Step-down Switching Regulator 2017-11-02
NGTB20N135IHRWG IGBT,1350V,20A FS2-RC Induction Heating 2017-11-02
NB7V585MMNG 1.8V / 2.5V Differential 2:1 Mux Input to 1:6 CML Clock/Data Fanout Buffer/Translator 2017-11-02
NCP1013ST130T3G Self-Supplied Monolithic Switcher for Low Standby-Power Offline SMPS 2017-11-02
MJW3281AG Complementary NPN-PNP Silicon Power Bipolar Transistors 2017-11-02
NCV8674DS50R4G Very Low Iq Low Dropout Linear Regulator 2017-11-02
MCH6544-TL-E 50V,0.5A,Dual NPN Bipolar Transistor 2017-10-19
NSV50350ADT4G Constant Current Regulator & LED Driver 2017-10-19
NVMFS5C410NLAFT1G 40V,0.82mΩ,330A,N-Channel Power MOSFET 2017-10-19
MMBTA56WT1G -80V,-0.5A,PNP Bipolar Transistor 2017-10-19
NCP5662MNADJR2G Low Output Voltage, Ultra Fast 2.0 A Low Dropout Linear Regulator with Enable 2017-10-19
NCP1077AAP065G Enhanced Off line Switcher 2017-10-19
AX-SFJK-API-1-01-TB05 RF Transceiver SoC,Sigfox™ Verified RCZ3&7,Ultra-low Power,with API library 2017-10-19
LC898123F40XC-VH OIS/AF Controller & Driver with 40 kB Flash Memory 2017-10-19
NVD6415ANT4G 100V,55mΩ,23A,N-Channel Power MOSFET 2017-10-19
NSVBC817-40WT1G 45V,0.5A,General Purpose NPN Transistor 2017-10-19
NGTB25N120FL2WG 1200V,30A,IGBT - Field Stop II 2017-10-19
15C02MH-TL-E 15V,1A,Low VCE(sat) NPN Bipolar Transistor 2017-10-19
NDDP010N25AZT4H 250V,420mΩ,10A,Single N-Ch Power MOSFET 2017-10-19
NOIL1SM0300A-QDC CMOS Image Sensor 2017-10-19
NCV3011DTBR2G 400KHz,Synchronous Buck PWM Controller 2017-10-19
CAT5401YI-10-T2 Quad Digitally Program-mable Potentiometers(DPP ) with 64 Taps and SPI Interface 2017-10-19
NB7L585MNR4G 2.5V / 3.3V Differential 2:1 Mux Input to 1:6 LVPECL Clock/Data Fanout Buffer / Translator 2017-10-19
NCP43080DDR2G Synchronous Rectifier Controller 2017-10-10
NVMFS5C604NLWFAFT1G 60V,1.2mΩ,287A,Single N-Ch Power MOSFET 2017-10-10
NVD5C446NT4G 40V,3.5mΩ,101A,Single N-Ch Power MOSFET 2017-10-10
NOIP1FN2000A-QDI 2.3 MP,Global Shutter,CMOS Image Sensor 2017-10-10
NCP302LSN40T1G Voltage Detector Series with Programmable Delay 2017-10-10
NCV551SN25T1G 150mA CMOS Low Iq Low Dropout Voltage Regulator 2017-10-10
MC100EP195BFAG 3.3V ECL Programmable Delay Chip 2017-10-10
BZX84C36LT1G Zener Voltage Regulators 2017-10-10
NCP301LSN22T1G Voltage Detector 2017-10-10
NLVVHC1G32DFT2G Single 2-Input OR Gate 2017-09-28
NCP1340B1DR2G High-Voltage,Quasi-Resonant Controller Featuring Valley Lock-Out Switching 2017-09-28
NCV8720BMT180TBG 1.8V Fixed Out,350mA,LDO Regulator 2017-09-28
NCV8720BMT120TBG 1.2V Fixed Out,350mA,LDO Regulator 2017-09-28
NCV8720BMT110TBG 1.1V Fixed Out,350mA,LDO Regulator 2017-09-28
NVMFS5C404NLWFAFT1G 40V,0.67mΩ,370A,Single N-Ch Power MOSFET 2017-09-28
NVMFS5C404NAFT1G 40V,0.7mΩ,378A,Single N-Ch Power MOSFET 2017-09-28
NVTFS5C454NLWFTAG 40V,4mΩ,85A,Single N-Ch Power MOSFET 2017-09-28
2SD1623T-TD-E 50V,2A,Low VCE(sat),NPN Bipolar Transistor 2017-09-28
NLVVHC1G00DFT2G Single 2-Input NAND Gate 2017-09-28
NLHV4157NDFT2G Negative Voltage SPDT Switch 2017-09-28
LM2901EDR2G Single Supply,36V,Quad,Comparator 2017-09-28
SZESD7205DT5G Low Capacitance ESD Protection Diodes for High Speed Data Line 2017-09-28
SZESD1L001W1T2G Low Capacitance ESD Protection Diodes for CAN/CAN−FD Bus 2017-09-28
CPH6636R-TL-W 24V,20mΩ,6A,Dual N-Ch Power MOSFET 2017-09-28
TIP35CG Complementary Silicon High Power Transistors 2017-09-28
MC100EP131FAG 3.3V / 5V ECL Quad D Flip Flop with Set, Reset, and Differential Clock 2017-09-28
NB6L14MNR2G 2.5V/3.3V 3.0 GHz Differential 1:4 LVPECL Fanout Buffer 2017-09-19
NB3N2304NZDTG 3.3V 1:4 Clock Fanout Buffer 2017-09-19
MC33269DR2-5.0G 800 mA, Adjustable Output, Low Dropout Voltage Regulator 2017-09-19
STD110N02RT4G 24V,110A,4.6mΩ,Single N-Channel Power MOSFET 2017-09-05
NCP431AVLPRAG Programmable Precision References 2017-09-05
CAT824MTDI-GT3 System Supervisory Voltage Reset with Watchdog and Manual Reset 2017-09-05
15C02CH-TL-E 15V,1A,Low VCE(sat) NPN Bipolar Transistor 2017-09-05
12A02MH-TL-E -12V,-1A,Low VCE(sat) PNP Bipolar Transistor 2017-09-05
NLHV4051DTR2G 8:1 Analog Multiplexers/Demultiplexers 2017-09-05
NCV97311MW33R2G Automotive Battery-Connected Low-Iq Multi-Output Power Management Unit with 3 Buck Regulators 2017-09-05
NSPM5131MUTBG 13.5V Unidirectional ESD and Surge Protection Device 2017-09-05
NCV20061SQ3T2G Single,3MHz,125A,Low Power Operational Amplifier 2017-09-05
SBC856BWT1G -66V,-100mA,PNP Bipolar Transistor 2017-09-05
NCP456RFCCT2G Load Switch,2A Single,For Low Voltage Rail 2017-09-05
N24C64UVTG 64Kb(8k x 8),I2C,CMOS Serial EEPROM 2017-09-05
NCV8114ASN300T1G 3.0V Fixed Out,300mA,CMOS LDO Regulator(Automotive) 2017-09-05
NCV8114ASN150T1G 1.5V Fixed Out,300mA,CMOS LDO Regulator(Automotive) 2017-09-05
NLVHC1G32DFT2G Single 2-Input OR Gate 2017-09-05
NVTFS5C453NLWFTAG 40V,3.1mΩ,107A,Single N-Ch Power MOSFET 2017-09-05
NVA4153NT1G 20V,230mΩ,915mA,Single Small Signal N-Channel MOSFET 2017-09-05
NLVHC4538ADTR2G Dual Precision Monostable Multivibrator 2017-09-05
LP2951ACDM-3.0RG 3V Fixed Out,100mA,Low Power LDO Regulator 2017-09-05
CAV25160VE-GT3 16-kb SPI Serial CMOS EEPROM Memory 2017-09-05
LM358EDR2G Single Supply,Dual Operational Amplifier 2017-09-05
NSV40200UW6T1G -40V,-2A,PNP Low VCE(sat) Transistor 2017-09-05
NCP4305ADR2G Secondary Side Controller,Synchronous Rectification,for High Efficiency SMPS Topologie